createdAt,value
2023-04-16T00:00:13.899Z,7.0829
2023-04-16T00:01:14.507Z,7.0870
2023-04-16T00:02:15.161Z,7.0927
2023-04-16T00:03:15.956Z,7.0989
2023-04-16T00:04:17.101Z,7.1040
2023-04-16T00:05:18.113Z,7.1063
2023-04-16T00:06:18.687Z,7.1076
2023-04-16T00:07:19.257Z,7.1035
2023-04-16T00:08:19.885Z,7.0999
2023-04-16T00:09:20.465Z,7.0968
2023-04-16T00:10:20.962Z,7.0957
2023-04-16T00:11:21.573Z,7.0953
2023-04-16T00:12:22.165Z,7.0967
2023-04-16T00:13:22.753Z,7.0953
2023-04-16T00:14:23.278Z,7.0915
2023-04-16T00:15:23.807Z,7.0865
2023-04-16T00:16:24.536Z,7.0816
2023-04-16T00:17:25.131Z,7.0790
2023-04-16T00:18:25.703Z,7.0764
2023-04-16T00:19:26.231Z,7.0778
2023-04-16T00:20:26.835Z,7.0773
2023-04-16T00:21:27.416Z,7.0765
2023-04-16T00:22:28.016Z,7.0755
2023-04-16T00:23:28.580Z,7.0721
2023-04-16T00:24:29.252Z,7.0672
2023-04-16T00:25:29.869Z,7.0646
2023-04-16T00:26:30.469Z,7.0625
2023-04-16T00:27:31.060Z,7.0599
2023-04-16T00:28:31.632Z,7.0560
2023-04-16T00:29:32.229Z,7.0506
2023-04-16T00:30:32.750Z,7.0441
2023-04-16T00:31:33.232Z,7.0400
2023-04-16T00:32:33.833Z,7.0361
2023-04-16T00:33:34.392Z,7.0326
2023-04-16T00:34:34.916Z,7.0303
2023-04-16T00:35:35.470Z,7.0273
2023-04-16T00:36:35.965Z,7.0262
2023-04-16T00:37:36.573Z,7.0249
2023-04-16T00:38:37.077Z,7.0214
2023-04-16T00:39:37.673Z,7.0169
2023-04-16T00:40:38.275Z,7.0147
2023-04-16T00:41:38.782Z,7.0106
2023-04-16T00:42:39.424Z,7.0085
2023-04-16T00:43:40.232Z,7.0064
2023-04-16T00:44:40.805Z,7.0012
2023-04-16T00:45:41.350Z,6.9965
2023-04-16T00:46:41.981Z,6.9934
2023-04-16T00:47:42.668Z,6.9910
2023-04-16T00:48:43.266Z,6.9898
2023-04-16T00:49:43.827Z,6.9894
2023-04-16T00:50:44.392Z,6.9876
2023-04-16T00:51:44.886Z,6.9842
2023-04-16T00:52:45.508Z,6.9777
2023-04-16T00:53:46.060Z,6.9724
2023-04-16T00:54:46.604Z,6.9682
2023-04-16T00:55:47.167Z,6.9624
2023-04-16T00:56:47.804Z,6.9582
2023-04-16T00:57:48.345Z,6.9534
2023-04-16T00:58:48.965Z,6.9511
2023-04-16T00:59:49.556Z,6.9487
2023-04-16T01:00:50.117Z,6.9477
2023-04-16T01:01:50.969Z,6.9445
2023-04-16T01:02:51.815Z,6.9416
2023-04-16T01:03:52.713Z,6.9376
2023-04-16T01:04:53.597Z,6.9322
2023-04-16T01:05:54.147Z,6.9267
2023-04-16T01:06:54.694Z,6.9226
2023-04-16T01:07:55.308Z,6.9215
2023-04-16T01:08:55.853Z,6.9214
2023-04-16T01:09:56.460Z,6.9197
2023-04-16T01:10:56.998Z,6.9190
2023-04-16T01:11:57.601Z,6.9194
2023-04-16T01:12:58.266Z,6.9186
2023-04-16T01:13:58.815Z,6.9165
2023-04-16T01:14:59.351Z,6.9140
2023-04-16T01:16:00.018Z,6.9136
2023-04-16T01:17:00.635Z,6.9133
2023-04-16T01:18:01.249Z,6.9121
2023-04-16T01:19:01.836Z,6.9093
2023-04-16T01:20:02.422Z,6.9087
2023-04-16T01:21:03.041Z,6.9068
2023-04-16T01:22:03.573Z,6.9075
2023-04-16T01:23:04.161Z,6.9060
2023-04-16T01:24:04.705Z,6.9043
2023-04-16T01:25:05.288Z,6.9048
2023-04-16T01:26:05.845Z,6.9048
2023-04-16T01:27:06.420Z,6.9049
2023-04-16T01:28:06.973Z,6.9038
2023-04-16T01:29:07.832Z,6.9029
2023-04-16T01:30:08.574Z,6.9027
2023-04-16T01:31:09.132Z,6.9004
2023-04-16T01:32:09.699Z,6.8932
2023-04-16T01:33:10.275Z,6.8871
2023-04-16T01:34:10.822Z,6.8804
2023-04-16T01:35:11.335Z,6.8734
2023-04-16T01:36:11.939Z,6.8656
2023-04-16T01:37:12.489Z,6.8588
2023-04-16T01:38:13.096Z,6.8495
2023-04-16T01:39:13.668Z,6.8412
2023-04-16T01:40:14.222Z,6.8357
2023-04-16T01:41:14.714Z,6.8297
2023-04-16T01:42:15.258Z,6.8250
2023-04-16T01:43:15.881Z,6.8224
2023-04-16T01:44:16.432Z,6.8211
2023-04-16T01:45:16.973Z,6.8198
2023-04-16T01:46:17.520Z,6.8183
2023-04-16T01:47:18.076Z,6.8153
2023-04-16T01:48:18.645Z,6.8135
2023-04-16T01:49:19.197Z,6.8129
2023-04-16T01:50:19.747Z,6.8115
2023-04-16T01:51:20.353Z,6.8133
2023-04-16T01:52:20.901Z,6.8148
2023-04-16T01:53:21.518Z,6.8162
2023-04-16T01:54:22.087Z,6.8144
2023-04-16T01:55:22.629Z,6.8111
2023-04-16T01:56:23.220Z,6.8104
2023-04-16T01:57:23.768Z,6.8104
2023-04-16T01:58:24.427Z,6.8105
2023-04-16T01:59:25.014Z,6.8094
2023-04-16T02:00:25.582Z,6.8091
2023-04-16T02:01:26.176Z,6.8094
2023-04-16T02:02:26.962Z,6.8084
2023-04-16T02:03:27.739Z,6.8089
2023-04-16T02:04:28.398Z,6.8099
2023-04-16T02:05:28.955Z,6.8116
2023-04-16T02:06:29.607Z,6.8142
2023-04-16T02:07:30.186Z,6.8176
2023-04-16T02:08:30.872Z,6.8199
2023-04-16T02:09:31.477Z,6.8200
2023-04-16T02:10:32.086Z,6.8203
2023-04-16T02:11:32.716Z,6.8203
2023-04-16T02:12:33.332Z,6.8195
2023-04-16T02:13:33.981Z,6.8177
2023-04-16T02:14:34.561Z,6.8155
2023-04-16T02:15:35.149Z,6.8164
2023-04-16T02:16:35.974Z,6.8192
2023-04-16T02:17:36.648Z,6.8220
2023-04-16T02:18:37.262Z,6.8229
2023-04-16T02:19:37.883Z,6.8238
2023-04-16T02:20:38.542Z,6.8237
2023-04-16T02:21:39.228Z,6.8245
2023-04-16T02:22:39.791Z,6.8252
2023-04-16T02:23:40.497Z,6.8259
2023-04-16T02:24:41.214Z,6.8266
2023-04-16T02:25:41.834Z,6.8261
2023-04-16T02:26:42.444Z,6.8261
2023-04-16T02:27:43.177Z,6.8227
2023-04-16T02:28:43.853Z,6.8203
2023-04-16T02:29:44.485Z,6.8204
2023-04-16T02:30:45.120Z,6.8211
2023-04-16T02:31:45.811Z,6.8198
2023-04-16T02:32:46.550Z,6.8201
2023-04-16T02:33:47.096Z,6.8220
2023-04-16T02:34:47.874Z,6.8237
2023-04-16T02:35:48.443Z,6.8238
2023-04-16T02:36:49.153Z,6.8251
2023-04-16T02:37:49.753Z,6.8276
2023-04-16T02:38:50.427Z,6.8328
2023-04-16T02:39:51.138Z,6.8381
2023-04-16T02:40:51.766Z,6.8438
2023-04-16T02:41:52.374Z,6.8486
2023-04-16T02:42:52.939Z,6.8511
2023-04-16T02:43:53.509Z,6.8528
2023-04-16T02:44:54.220Z,6.8553
2023-04-16T02:45:55.344Z,6.8581
2023-04-16T02:46:55.969Z,6.8626
2023-04-16T02:47:56.626Z,6.8655
2023-04-16T02:48:57.337Z,6.8683
2023-04-16T02:49:57.953Z,6.8698
2023-04-16T02:50:58.672Z,6.8700
2023-04-16T02:51:59.320Z,6.8728
2023-04-16T02:52:59.936Z,6.8766
2023-04-16T02:54:00.596Z,6.8774
2023-04-16T02:55:01.205Z,6.8776
2023-04-16T02:56:01.886Z,6.8746
2023-04-16T02:57:02.573Z,6.8677
2023-04-16T02:58:03.178Z,6.8617
2023-04-16T02:59:03.842Z,6.8550
2023-04-16T03:00:04.470Z,6.8480
2023-04-16T03:01:05.161Z,6.8437
2023-04-16T03:02:05.798Z,6.8429
2023-04-16T03:03:06.398Z,6.8404
2023-04-16T03:04:07.073Z,6.8356
2023-04-16T03:05:07.712Z,6.8276
2023-04-16T03:06:08.399Z,6.8217
2023-04-16T03:07:09.005Z,6.8169
2023-04-16T03:08:09.604Z,6.8142
2023-04-16T03:09:10.923Z,6.8140
2023-04-16T03:10:11.898Z,6.8124
2023-04-16T03:11:12.523Z,6.8101
2023-04-16T03:12:13.134Z,6.8057
2023-04-16T03:13:13.755Z,6.8024
2023-04-16T03:14:14.367Z,6.8015
2023-04-16T03:15:15.009Z,6.7994
2023-04-16T03:16:15.794Z,6.7943
2023-04-16T03:17:16.570Z,6.7862
2023-04-16T03:18:17.193Z,6.7835
2023-04-16T03:19:17.832Z,6.7801
2023-04-16T03:20:18.464Z,6.7797
2023-04-16T03:21:19.046Z,6.7766
2023-04-16T03:22:20.157Z,6.7730
2023-04-16T03:23:21.022Z,6.7678
2023-04-16T03:24:21.625Z,6.7601
2023-04-16T03:25:22.292Z,6.7557
2023-04-16T03:26:22.874Z,6.7546
2023-04-16T03:27:23.549Z,6.7532
2023-04-16T03:28:24.162Z,6.7524
2023-04-16T03:29:24.777Z,6.7513
2023-04-16T03:30:25.411Z,6.7482
2023-04-16T03:31:26.089Z,6.7445
2023-04-16T03:32:26.772Z,6.7400
2023-04-16T03:33:27.418Z,6.7292
2023-04-16T03:34:28.121Z,6.7211
2023-04-16T03:35:28.758Z,6.7113
2023-04-16T03:36:29.402Z,6.7042
2023-04-16T03:37:29.998Z,6.6988
2023-04-16T03:38:30.584Z,6.6978
2023-04-16T03:39:31.217Z,6.6940
2023-04-16T03:40:31.840Z,6.6877
2023-04-16T03:41:32.487Z,6.6816
2023-04-16T03:42:33.070Z,6.6745
2023-04-16T03:43:33.682Z,6.6675
2023-04-16T03:44:34.267Z,6.6603
2023-04-16T03:45:34.864Z,6.6514
2023-04-16T03:46:35.481Z,6.6428
2023-04-16T03:47:36.147Z,6.6350
2023-04-16T03:48:36.774Z,6.6281
2023-04-16T03:49:37.488Z,6.6202
2023-04-16T03:50:38.116Z,6.6135
2023-04-16T03:51:38.696Z,6.6067
2023-04-16T03:52:39.323Z,6.6017
2023-04-16T03:53:39.959Z,6.5987
2023-04-16T03:54:40.626Z,6.5973
2023-04-16T03:55:41.251Z,6.5965
2023-04-16T03:56:41.852Z,6.5968
2023-04-16T03:57:42.481Z,6.5959
2023-04-16T03:58:43.118Z,6.5963
2023-04-16T03:59:43.780Z,6.5974
2023-04-16T04:00:44.431Z,6.5994
2023-04-16T04:01:45.058Z,6.6020
2023-04-16T04:02:45.812Z,6.6048
2023-04-16T04:03:46.740Z,6.6099
2023-04-16T04:04:47.838Z,6.6154
2023-04-16T04:05:48.528Z,6.6188
2023-04-16T04:06:49.168Z,6.6199
2023-04-16T04:07:49.747Z,6.6187
2023-04-16T04:08:50.366Z,6.6141
2023-04-16T04:09:51.045Z,6.6075
2023-04-16T04:10:51.644Z,6.6029
2023-04-16T04:11:52.331Z,6.6015
2023-04-16T04:12:52.942Z,6.6003
2023-04-16T04:13:53.587Z,6.5976
2023-04-16T04:14:54.268Z,6.5950
2023-04-16T04:15:54.907Z,6.5916
2023-04-16T04:16:55.567Z,6.5860
2023-04-16T04:17:56.249Z,6.5841
2023-04-16T04:18:56.893Z,6.5833
2023-04-16T04:20:01.251Z,6.5833
2023-04-16T04:21:00.153Z,6.5853
2023-04-16T04:22:00.785Z,6.5873
2023-04-16T04:23:01.368Z,6.5907
2023-04-16T04:24:02.051Z,6.5947
2023-04-16T04:25:02.886Z,6.5991
2023-04-16T04:26:03.527Z,6.6032
2023-04-16T04:27:04.184Z,6.6050
2023-04-16T04:28:04.898Z,6.6075
2023-04-16T04:29:05.567Z,6.6061
2023-04-16T04:30:06.218Z,6.6049
2023-04-16T04:31:06.845Z,6.6059
2023-04-16T04:32:07.596Z,6.6079
2023-04-16T04:33:08.546Z,6.6099
2023-04-16T04:34:09.185Z,6.6112
2023-04-16T04:35:09.856Z,6.6127
2023-04-16T04:36:10.519Z,6.6129
2023-04-16T04:37:11.185Z,6.6145
2023-04-16T04:38:13.180Z,6.6162
2023-04-16T04:39:12.859Z,6.6181
2023-04-16T04:40:13.556Z,6.6227
2023-04-16T04:41:14.244Z,6.6247
2023-04-16T04:42:14.839Z,6.6250
2023-04-16T04:43:15.493Z,6.6240
2023-04-16T04:44:16.172Z,6.6167
2023-04-16T04:45:16.857Z,6.6113
2023-04-16T04:46:17.524Z,6.6054
2023-04-16T04:47:18.175Z,6.6007
2023-04-16T04:48:18.893Z,6.5958
2023-04-16T04:49:19.498Z,6.5922
2023-04-16T04:50:20.190Z,6.5896
2023-04-16T04:51:20.880Z,6.5886
2023-04-16T04:52:21.473Z,6.5886
2023-04-16T04:53:22.101Z,6.5870
2023-04-16T04:54:22.678Z,6.5863
2023-04-16T04:55:23.453Z,6.5833
2023-04-16T04:56:24.105Z,6.5815
2023-04-16T04:57:24.837Z,6.5798
2023-04-16T04:58:25.413Z,6.5785
2023-04-16T04:59:26.088Z,6.5772
2023-04-16T05:00:26.744Z,6.5762
2023-04-16T05:01:27.479Z,6.5780
2023-04-16T05:02:28.175Z,6.5801
2023-04-16T05:03:28.889Z,6.5791
2023-04-16T05:04:29.546Z,6.5807
2023-04-16T05:05:30.180Z,6.5858
2023-04-16T05:06:30.946Z,6.5907
2023-04-16T05:07:31.558Z,6.5947
2023-04-16T05:08:32.186Z,6.5949
2023-04-16T05:09:32.824Z,6.5944
2023-04-16T05:10:33.420Z,6.5941
2023-04-16T05:11:34.079Z,6.5956
2023-04-16T05:12:34.671Z,6.5956
2023-04-16T05:13:35.315Z,6.5948
2023-04-16T05:14:35.964Z,6.5966
2023-04-16T05:15:36.567Z,6.6001
2023-04-16T05:16:37.344Z,6.6028
2023-04-16T05:17:37.958Z,6.6072
2023-04-16T05:18:38.596Z,6.6096
2023-04-16T05:19:39.197Z,6.6073
2023-04-16T05:20:39.836Z,6.6073
2023-04-16T05:21:40.519Z,6.6062
2023-04-16T05:22:41.169Z,6.6056
2023-04-16T05:23:41.817Z,6.6037
2023-04-16T05:24:42.472Z,6.6041
2023-04-16T05:25:43.129Z,6.6055
2023-04-16T05:26:43.833Z,6.6101
2023-04-16T05:27:44.460Z,6.6160
2023-04-16T05:28:45.064Z,6.6212
2023-04-16T05:29:45.787Z,6.6249
2023-04-16T05:30:46.410Z,6.6251
2023-04-16T05:31:47.172Z,6.6240
2023-04-16T05:32:47.824Z,6.6236
2023-04-16T05:33:48.394Z,6.6225
2023-04-16T05:34:49.073Z,6.6209
2023-04-16T05:35:49.719Z,6.6238
2023-04-16T05:36:50.439Z,6.6254
2023-04-16T05:37:51.041Z,6.6288
2023-04-16T05:38:51.743Z,6.6347
2023-04-16T05:39:52.580Z,6.6392
2023-04-16T05:40:53.238Z,6.6415
2023-04-16T05:41:53.852Z,6.6419
2023-04-16T05:42:54.639Z,6.6413
2023-04-16T05:43:55.332Z,6.6405
2023-04-16T05:44:56.038Z,6.6371
2023-04-16T05:45:56.837Z,6.6335
2023-04-16T05:46:57.538Z,6.6314
2023-04-16T05:47:58.180Z,6.6293
2023-04-16T05:48:58.832Z,6.6277
2023-04-16T05:49:59.411Z,6.6274
2023-04-16T05:51:00.053Z,6.6297
2023-04-16T05:52:00.658Z,6.6352
2023-04-16T05:53:01.345Z,6.6388
2023-04-16T05:54:02.042Z,6.6414
2023-04-16T05:55:02.646Z,6.6404
2023-04-16T05:56:03.328Z,6.6409
2023-04-16T05:57:03.949Z,6.6426
2023-04-16T05:58:04.538Z,6.6453
2023-04-16T05:59:05.237Z,6.6511
2023-04-16T06:00:05.870Z,6.6569
2023-04-16T06:01:06.477Z,6.6621
2023-04-16T06:02:07.198Z,6.6677
2023-04-16T06:03:08.030Z,6.6740
2023-04-16T06:04:08.996Z,6.6823
2023-04-16T06:05:09.702Z,6.6902
2023-04-16T06:06:10.296Z,6.7012
2023-04-16T06:07:10.933Z,6.7121
2023-04-16T06:08:11.607Z,6.7234
2023-04-16T06:09:12.317Z,6.7371
2023-04-16T06:10:12.970Z,6.7481
2023-04-16T06:11:13.587Z,6.7564
2023-04-16T06:12:14.270Z,6.7620
2023-04-16T06:13:14.851Z,6.7650
2023-04-16T06:14:15.500Z,6.7662
2023-04-16T06:15:16.194Z,6.7686
2023-04-16T06:16:16.883Z,6.7715
2023-04-16T06:17:17.618Z,6.7738
2023-04-16T06:18:18.250Z,6.7751
2023-04-16T06:19:18.986Z,6.7782
2023-04-16T06:20:19.621Z,6.7848
2023-04-16T06:21:20.232Z,6.7913
2023-04-16T06:22:20.918Z,6.8003
2023-04-16T06:23:21.564Z,6.8091
2023-04-16T06:24:22.172Z,6.8137
2023-04-16T06:25:22.863Z,6.8108
2023-04-16T06:26:23.482Z,6.8010
2023-04-16T06:27:24.203Z,6.7889
2023-04-16T06:28:24.847Z,6.7763
2023-04-16T06:29:33.717Z,6.7674
2023-04-16T06:30:26.891Z,6.7550
2023-04-16T06:31:27.596Z,6.7409
2023-04-16T06:32:28.479Z,6.7273
2023-04-16T06:33:29.234Z,6.7161
2023-04-16T06:34:29.887Z,6.7047
2023-04-16T06:35:30.518Z,6.7004
2023-04-16T06:36:31.213Z,6.6994
2023-04-16T06:37:31.863Z,6.6958
2023-04-16T06:38:32.493Z,6.6900
2023-04-16T06:39:33.432Z,6.6821
2023-04-16T06:40:34.088Z,6.6772
2023-04-16T06:41:34.750Z,6.6734
2023-04-16T06:42:35.418Z,6.6730
2023-04-16T06:43:36.053Z,6.6765
2023-04-16T06:44:36.644Z,6.6804
2023-04-16T06:45:37.270Z,6.6839
2023-04-16T06:46:37.994Z,6.6871
2023-04-16T06:47:38.759Z,6.6924
2023-04-16T06:48:39.384Z,6.7002
2023-04-16T06:49:39.977Z,6.7098
2023-04-16T06:50:40.600Z,6.7208
2023-04-16T06:51:41.207Z,6.7335
2023-04-16T06:52:41.952Z,6.7456
2023-04-16T06:53:42.584Z,6.7559
2023-04-16T06:54:43.345Z,6.7656
2023-04-16T06:55:43.993Z,6.7747
2023-04-16T06:56:44.750Z,6.7857
2023-04-16T06:57:45.475Z,6.7945
2023-04-16T06:58:46.162Z,6.8012
2023-04-16T06:59:46.834Z,6.8080
2023-04-16T07:00:47.693Z,6.8140
2023-04-16T07:01:48.534Z,6.8227
2023-04-16T07:02:49.391Z,6.8312
2023-04-16T07:03:50.322Z,6.8394
2023-04-16T07:04:51.513Z,6.8472
2023-04-16T07:05:52.174Z,6.8528
2023-04-16T07:06:52.899Z,6.8598
2023-04-16T07:07:53.635Z,6.8653
2023-04-16T07:08:54.384Z,6.8748
2023-04-16T07:09:55.087Z,6.8824
2023-04-16T07:10:55.823Z,6.8857
2023-04-16T07:11:56.609Z,6.8878
2023-04-16T07:12:57.399Z,6.8900
2023-04-16T07:13:58.088Z,6.8962
2023-04-16T07:14:58.761Z,6.9012
2023-04-16T07:15:59.461Z,6.9064
2023-04-16T07:17:00.129Z,6.9116
2023-04-16T07:18:00.855Z,6.9108
2023-04-16T07:19:01.576Z,6.9052
2023-04-16T07:20:02.210Z,6.9021
2023-04-16T07:21:02.897Z,6.9011
2023-04-16T07:22:03.835Z,6.9007
2023-04-16T07:23:04.539Z,6.9019
2023-04-16T07:24:05.256Z,6.9046
2023-04-16T07:25:05.865Z,6.9053
2023-04-16T07:26:06.473Z,6.9024
2023-04-16T07:27:07.135Z,6.9005
2023-04-16T07:28:07.827Z,6.8994
2023-04-16T07:29:08.800Z,6.9002
2023-04-16T07:30:09.791Z,6.9021
2023-04-16T07:31:10.452Z,6.9021
2023-04-16T07:32:12.445Z,6.9014
2023-04-16T07:33:12.153Z,6.9034
2023-04-16T07:34:12.933Z,6.9078
2023-04-16T07:35:13.593Z,6.9091
2023-04-16T07:36:14.259Z,6.9109
2023-04-16T07:37:14.927Z,6.9142
2023-04-16T07:38:15.714Z,6.9185
2023-04-16T07:39:16.438Z,6.9266
2023-04-16T07:40:17.175Z,6.9339
2023-04-16T07:41:17.872Z,6.9356
2023-04-16T07:42:18.550Z,6.9362
2023-04-16T07:43:19.357Z,6.9384
2023-04-16T07:44:20.088Z,6.9414
2023-04-16T07:45:20.774Z,6.9438
2023-04-16T07:46:21.853Z,6.9504
2023-04-16T07:47:22.885Z,6.9557
2023-04-16T07:48:23.674Z,6.9560
2023-04-16T07:49:24.390Z,6.9544
2023-04-16T07:50:25.083Z,6.9544
2023-04-16T07:51:25.799Z,6.9534
2023-04-16T07:52:26.418Z,6.9551
2023-04-16T07:53:27.184Z,6.9614
2023-04-16T07:54:29.084Z,6.9692
2023-04-16T07:55:30.063Z,6.9780
2023-04-16T07:56:30.797Z,6.9850
2023-04-16T07:57:31.492Z,6.9896
2023-04-16T07:58:32.283Z,6.9905
2023-04-16T07:59:32.996Z,6.9904
2023-04-16T08:00:33.707Z,6.9928
2023-04-16T08:01:34.403Z,6.9965
2023-04-16T08:02:35.118Z,7.0013
2023-04-16T08:03:36.348Z,7.0087
2023-04-16T08:04:37.256Z,7.0176
2023-04-16T08:05:38.280Z,7.0229
2023-04-16T08:06:39.039Z,7.0274
2023-04-16T08:07:39.696Z,7.0319
2023-04-16T08:08:40.349Z,7.0382
2023-04-16T08:09:41.115Z,7.0411
2023-04-16T08:10:41.719Z,7.0370
2023-04-16T08:11:42.366Z,7.0346
2023-04-16T08:12:42.994Z,7.0336
2023-04-16T08:13:43.650Z,7.0343
2023-04-16T08:14:44.323Z,7.0369
2023-04-16T08:15:45.136Z,7.0412
2023-04-16T08:16:45.944Z,7.0482
2023-04-16T08:17:46.636Z,7.0565
2023-04-16T08:18:47.369Z,7.0647
2023-04-16T08:19:48.095Z,7.0738
2023-04-16T08:20:48.758Z,7.0825
2023-04-16T08:21:49.630Z,7.0904
2023-04-16T08:22:50.439Z,7.0975
2023-04-16T08:23:51.085Z,7.1090
2023-04-16T08:24:51.763Z,7.1166
2023-04-16T08:25:53.112Z,7.1217
2023-04-16T08:26:53.857Z,7.1265
2023-04-16T08:27:54.600Z,7.1294
2023-04-16T08:28:55.232Z,7.1345
2023-04-16T08:29:55.927Z,7.1412
2023-04-16T08:30:56.624Z,7.1499
2023-04-16T08:31:57.304Z,7.1596
2023-04-16T08:32:58.001Z,7.1693
2023-04-16T08:33:58.722Z,7.1805
2023-04-16T08:34:59.442Z,7.1904
2023-04-16T08:36:00.116Z,7.1989
2023-04-16T08:37:00.761Z,7.2091
2023-04-16T08:38:02.598Z,7.2216
2023-04-16T08:39:03.443Z,7.2376
2023-04-16T08:40:04.161Z,7.2491
2023-04-16T08:41:04.802Z,7.2629
2023-04-16T08:42:05.439Z,7.2740
2023-04-16T08:43:06.055Z,7.2857
2023-04-16T08:44:06.838Z,7.2984
2023-04-16T08:45:07.444Z,7.3088
2023-04-16T08:46:08.160Z,7.3156
2023-04-16T08:47:08.882Z,7.3228
2023-04-16T08:48:09.807Z,7.3321
2023-04-16T08:49:10.700Z,7.3467
2023-04-16T08:50:11.681Z,7.3618
2023-04-16T08:51:12.336Z,7.3705
2023-04-16T08:52:13.047Z,7.3789
2023-04-16T08:53:13.699Z,7.3889
2023-04-16T08:54:14.378Z,7.3936
2023-04-16T08:55:15.090Z,7.3926
2023-04-16T08:56:15.813Z,7.3944
2023-04-16T08:57:16.484Z,7.4005
2023-04-16T08:58:17.145Z,7.4028
2023-04-16T08:59:17.798Z,7.4014
2023-04-16T09:00:18.497Z,7.3993
2023-04-16T09:01:19.347Z,7.3954
2023-04-16T09:02:20.131Z,7.3927
2023-04-16T09:03:21.197Z,7.3922
2023-04-16T09:04:22.018Z,7.3935
2023-04-16T09:05:22.789Z,7.3921
2023-04-16T09:06:23.443Z,7.3916
2023-04-16T09:07:24.266Z,7.3933
2023-04-16T09:08:24.967Z,7.3980
2023-04-16T09:09:25.654Z,7.4071
2023-04-16T09:10:26.576Z,7.4150
2023-04-16T09:11:27.194Z,7.4261
2023-04-16T09:12:27.877Z,7.4332
2023-04-16T09:13:28.515Z,7.4402
2023-04-16T09:14:29.317Z,7.4425
2023-04-16T09:15:29.970Z,7.4406
2023-04-16T09:16:30.784Z,7.4372
2023-04-16T09:17:31.450Z,7.4333
2023-04-16T09:18:32.063Z,7.4333
2023-04-16T09:19:32.728Z,7.4374
2023-04-16T09:20:33.351Z,7.4456
2023-04-16T09:21:33.987Z,7.4544
2023-04-16T09:22:34.641Z,7.4594
2023-04-16T09:23:35.330Z,7.4657
2023-04-16T09:24:35.941Z,7.4744
2023-04-16T09:25:36.926Z,7.4815
2023-04-16T09:26:37.562Z,7.4900
2023-04-16T09:27:38.256Z,7.4991
2023-04-16T09:28:38.904Z,7.5067
2023-04-16T09:29:39.600Z,7.5115
2023-04-16T09:30:40.313Z,7.5137
2023-04-16T09:31:40.994Z,7.5122
2023-04-16T09:32:41.798Z,7.5121
2023-04-16T09:33:42.450Z,7.5199
2023-04-16T09:34:43.236Z,7.5321
2023-04-16T09:35:43.956Z,7.5433
2023-04-16T09:36:44.628Z,7.5544
2023-04-16T09:37:45.284Z,7.5659
2023-04-16T09:38:45.986Z,7.5723
2023-04-16T09:39:46.646Z,7.5715
2023-04-16T09:40:47.401Z,7.5679
2023-04-16T09:41:48.224Z,7.5656
2023-04-16T09:42:49.222Z,7.5669
2023-04-16T09:43:49.823Z,7.5703
2023-04-16T09:44:50.454Z,7.5751
2023-04-16T09:45:51.260Z,7.5805
2023-04-16T09:46:51.965Z,7.5879
2023-04-16T09:47:52.739Z,7.5983
2023-04-16T09:48:53.414Z,7.6058
2023-04-16T09:49:54.923Z,7.6096
2023-04-16T09:50:55.580Z,7.6133
2023-04-16T09:51:56.275Z,7.6184
2023-04-16T09:52:56.926Z,7.6214
2023-04-16T09:53:57.614Z,7.6261
2023-04-16T09:54:58.278Z,7.6326
2023-04-16T09:55:59.062Z,7.6424
2023-04-16T09:56:59.795Z,7.6473
2023-04-16T09:58:00.503Z,7.6485
2023-04-16T09:59:01.177Z,7.6457
2023-04-16T10:00:01.816Z,7.6424
2023-04-16T10:01:02.592Z,7.6357
2023-04-16T10:02:14.600Z,7.6300
2023-04-16T10:03:04.794Z,7.6201
2023-04-16T10:04:05.655Z,7.6135
2023-04-16T10:05:06.499Z,7.6023
2023-04-16T10:06:07.171Z,7.5928
2023-04-16T10:07:07.858Z,7.5801
2023-04-16T10:08:08.546Z,7.5723
2023-04-16T10:09:09.452Z,7.5715
2023-04-16T10:10:10.510Z,7.5711
2023-04-16T10:11:11.206Z,7.5742
2023-04-16T10:12:12.063Z,7.5725
2023-04-16T10:13:12.863Z,7.5712
2023-04-16T10:14:13.617Z,7.5747
2023-04-16T10:15:14.387Z,7.5822
2023-04-16T10:16:15.181Z,7.5935
2023-04-16T10:17:15.846Z,7.6063
2023-04-16T10:18:16.521Z,7.6215
2023-04-16T10:19:17.121Z,7.6382
2023-04-16T10:20:17.792Z,7.6499
2023-04-16T10:21:18.538Z,7.6610
2023-04-16T10:22:19.168Z,7.6681
2023-04-16T10:23:19.743Z,7.6718
2023-04-16T10:24:20.359Z,7.6761
2023-04-16T10:25:21.016Z,7.6799
2023-04-16T10:26:21.677Z,7.6881
2023-04-16T10:27:22.326Z,7.6988
2023-04-16T10:28:23.114Z,7.7139
2023-04-16T10:29:23.797Z,7.7290
2023-04-16T10:30:24.519Z,7.7465
2023-04-16T10:31:25.233Z,7.7656
2023-04-16T10:32:26.180Z,7.7813
2023-04-16T10:33:26.894Z,7.7870
2023-04-16T10:34:27.545Z,7.7889
2023-04-16T10:35:28.225Z,7.7988
2023-04-16T10:36:28.999Z,7.8118
2023-04-16T10:37:29.625Z,7.8265
2023-04-16T10:38:30.339Z,7.8446
2023-04-16T10:39:30.992Z,7.8649
2023-04-16T10:40:31.640Z,7.8850
2023-04-16T10:41:32.363Z,7.9081
2023-04-16T10:42:33.063Z,7.9316
2023-04-16T10:43:33.753Z,7.9586
2023-04-16T10:44:34.370Z,7.9842
2023-04-16T10:45:35.233Z,8.0074
2023-04-16T10:46:35.992Z,8.0353
2023-04-16T10:47:36.664Z,8.0652
2023-04-16T10:48:48.660Z,8.0943
2023-04-16T10:49:38.712Z,8.1212
2023-04-16T10:50:39.587Z,8.1423
2023-04-16T10:51:40.370Z,8.1621
2023-04-16T10:52:41.074Z,8.1762
2023-04-16T10:53:41.732Z,8.1833
2023-04-16T10:54:42.398Z,8.1892
2023-04-16T10:55:42.998Z,8.1958
2023-04-16T10:56:43.689Z,8.2036
2023-04-16T10:57:44.378Z,8.2090
2023-04-16T10:58:45.019Z,8.2090
2023-04-16T10:59:45.663Z,8.2021
2023-04-16T11:00:46.340Z,8.1975
2023-04-16T11:01:47.041Z,8.2011
2023-04-16T11:02:47.833Z,8.2096
2023-04-16T11:03:48.617Z,8.2208
2023-04-16T11:04:50.007Z,8.2224
2023-04-16T11:05:50.842Z,8.2270
2023-04-16T11:06:51.532Z,8.2366
2023-04-16T11:07:52.506Z,8.2383
2023-04-16T11:08:54.915Z,8.2245
2023-04-16T11:09:53.814Z,8.2067
2023-04-16T11:10:54.487Z,8.2009
2023-04-16T11:11:55.181Z,8.2037
2023-04-16T11:12:55.857Z,8.2181
2023-04-16T11:13:56.530Z,8.2371
2023-04-16T11:14:57.198Z,8.2481
2023-04-16T11:15:57.861Z,8.2523
2023-04-16T11:16:58.499Z,8.2579
2023-04-16T11:17:59.176Z,8.2628
2023-04-16T11:18:59.810Z,8.2647
2023-04-16T11:20:00.545Z,8.2725
2023-04-16T11:21:01.275Z,8.2855
2023-04-16T11:22:01.898Z,8.3063
2023-04-16T11:23:02.579Z,8.3331
2023-04-16T11:24:03.133Z,8.3602
2023-04-16T11:25:03.778Z,8.3739
2023-04-16T11:26:04.426Z,8.3654
2023-04-16T11:27:05.176Z,8.3481
2023-04-16T11:28:05.828Z,8.3334
2023-04-16T11:29:06.516Z,8.3274
2023-04-16T11:30:07.174Z,8.3195
2023-04-16T11:31:07.861Z,8.3077
2023-04-16T11:32:08.545Z,8.2956
2023-04-16T11:33:09.245Z,8.2818
2023-04-16T11:34:09.900Z,8.2683
2023-04-16T11:35:10.547Z,8.2594
2023-04-16T11:36:11.139Z,8.2549
2023-04-16T11:37:11.885Z,8.2549
2023-04-16T11:38:12.555Z,8.2553
2023-04-16T11:39:13.229Z,8.2484
2023-04-16T11:40:14.020Z,8.2378
2023-04-16T11:41:14.680Z,8.2096
2023-04-16T11:42:15.436Z,8.1862
2023-04-16T11:43:16.179Z,8.1667
2023-04-16T11:44:16.829Z,8.1532
2023-04-16T11:45:17.902Z,8.1479
2023-04-16T11:46:27.398Z,8.1457
2023-04-16T11:47:20.271Z,8.1406
2023-04-16T11:48:21.031Z,8.1362
2023-04-16T11:49:21.740Z,8.1318
2023-04-16T11:50:22.757Z,8.1265
2023-04-16T11:51:23.810Z,8.1246
2023-04-16T11:52:24.991Z,8.1248
2023-04-16T11:53:25.752Z,8.1225
2023-04-16T11:54:26.455Z,8.1213
2023-04-16T11:55:27.178Z,8.1216
2023-04-16T11:56:27.850Z,8.1235
2023-04-16T11:57:28.549Z,8.1281
2023-04-16T11:58:29.263Z,8.1340
2023-04-16T11:59:29.970Z,8.1380
2023-04-16T12:00:30.665Z,8.1430
2023-04-16T12:01:31.408Z,8.1541
2023-04-16T12:02:32.313Z,8.1667
2023-04-16T12:03:33.348Z,8.1826
2023-04-16T12:04:34.204Z,8.1984
2023-04-16T12:05:34.954Z,8.2195
2023-04-16T12:06:35.695Z,8.2454
2023-04-16T12:07:36.494Z,8.2657
2023-04-16T12:08:37.272Z,8.2827
2023-04-16T12:09:40.569Z,8.2983
2023-04-16T12:10:39.048Z,8.3152
2023-04-16T12:11:39.747Z,8.3336
2023-04-16T12:12:40.480Z,8.3559
2023-04-16T12:13:41.218Z,8.3767
2023-04-16T12:14:41.946Z,8.3910
2023-04-16T12:15:42.631Z,8.4028
2023-04-16T12:16:43.371Z,8.4134
2023-04-16T12:17:45.263Z,8.4263
2023-04-16T12:18:45.924Z,8.4466
2023-04-16T12:19:46.674Z,8.4702
2023-04-16T12:20:47.436Z,8.4925
2023-04-16T12:21:48.250Z,8.5119
2023-04-16T12:22:49.006Z,8.5260
2023-04-16T12:23:49.748Z,8.5320
2023-04-16T12:24:50.495Z,8.5336
2023-04-16T12:25:51.173Z,8.5293
2023-04-16T12:26:51.928Z,8.5218
2023-04-16T12:27:54.009Z,8.5121
2023-04-16T12:28:54.999Z,8.4955
2023-04-16T12:29:55.709Z,8.4808
2023-04-16T12:30:56.539Z,8.4658
2023-04-16T12:31:57.277Z,8.4450
2023-04-16T12:32:59.166Z,8.4329
2023-04-16T12:33:59.870Z,8.4233
2023-04-16T12:35:00.556Z,8.4135
2023-04-16T12:36:01.239Z,8.3956
2023-04-16T12:37:02.802Z,8.3735